Leesburg, Alabama
Current Conditions -  °F | °C
As of 10:15 AM on Monday 22 Dec 2014 (Local Time) from K4A9 Reporting Station
Overcast Overcast  
Wind Chill: 40°   Ceiling: 600
Heat Index: 45°   Visibility: 7mi
Dew Point: 41°   Wind: 9mph
Humidity: 87%   Direction: 120°ESE
Pressure: 29.95"   Gusts: NA
Location:  34.18°N, 85.76°W
Report Text: K4A9 221615Z AUTO 12008KT 080V140 7SM OVC006 07/05 A2995 RMK AO2
Loading
Personal Weather Stations






























Interactive Weather Map New forecast layout! Learn more

10-Day Weather Forecast

Advertisements
Track Severe Weather on mobile